sensor_id;sensor_type;location;lat;lon;timestamp;P1;durP1;ratioP1;P2;durP2;ratioP2
15929;SDS011;8064;51.142;4.780;2023-11-19T00:00:42;5.80;;;1.83;;
15929;SDS011;8064;51.142;4.780;2023-11-19T00:03:08;4.50;;;1.87;;
15929;SDS011;8064;51.142;4.780;2023-11-19T00:05:34;6.97;;;1.87;;
15929;SDS011;8064;51.142;4.780;2023-11-19T00:08:00;4.83;;;1.73;;
15929;SDS011;8064;51.142;4.780;2023-11-19T00:10:27;9.10;;;2.23;;
15929;SDS011;8064;51.142;4.780;2023-11-19T00:12:52;6.07;;;1.60;;
15929;SDS011;8064;51.142;4.780;2023-11-19T00:15:18;6.43;;;1.87;;
15929;SDS011;8064;51.142;4.780;2023-11-19T00:17:45;5.20;;;1.73;;
15929;SDS011;8064;51.142;4.780;2023-11-19T00:20:13;5.30;;;1.93;;
15929;SDS011;8064;51.142;4.780;2023-11-19T00:22:40;3.57;;;1.40;;
15929;SDS011;8064;51.142;4.780;2023-11-19T00:25:07;6.50;;;1.80;;
15929;SDS011;8064;51.142;4.780;2023-11-19T00:27:33;5.07;;;1.50;;
15929;SDS011;8064;51.142;4.780;2023-11-19T00:29:59;4.37;;;1.57;;
15929;SDS011;8064;51.142;4.780;2023-11-19T00:32:25;4.43;;;1.87;;
15929;SDS011;8064;51.142;4.780;2023-11-19T00:34:51;6.57;;;1.67;;
15929;SDS011;8064;51.142;4.780;2023-11-19T00:37:17;5.03;;;2.23;;
15929;SDS011;8064;51.142;4.780;2023-11-19T00:39:43;6.93;;;1.80;;
15929;SDS011;8064;51.142;4.780;2023-11-19T00:42:09;6.07;;;1.73;;
15929;SDS011;8064;51.142;4.780;2023-11-19T00:44:36;6.63;;;1.83;;
15929;SDS011;8064;51.142;4.780;2023-11-19T00:47:02;7.80;;;1.93;;
15929;SDS011;8064;51.142;4.780;2023-11-19T00:49:28;5.93;;;1.80;;
15929;SDS011;8064;51.142;4.780;2023-11-19T00:51:53;7.07;;;1.87;;
15929;SDS011;8064;51.142;4.780;2023-11-19T00:54:19;4.47;;;1.60;;
15929;SDS011;8064;51.142;4.780;2023-11-19T00:56:45;8.90;;;2.20;;
15929;SDS011;8064;51.142;4.780;2023-11-19T00:59:11;10.43;;;2.20;;
15929;SDS011;8064;51.142;4.780;2023-11-19T01:01:37;8.77;;;2.40;;
15929;SDS011;8064;51.142;4.780;2023-11-19T01:04:02;10.33;;;2.20;;
15929;SDS011;8064;51.142;4.780;2023-11-19T01:06:28;8.87;;;2.20;;
15929;SDS011;8064;51.142;4.780;2023-11-19T01:08:55;7.30;;;1.70;;
15929;SDS011;8064;51.142;4.780;2023-11-19T01:11:22;9.13;;;2.23;;
15929;SDS011;8064;51.142;4.780;2023-11-19T01:13:49;9.80;;;2.20;;
15929;SDS011;8064;51.142;4.780;2023-11-19T01:16:15;7.37;;;1.83;;
15929;SDS011;8064;51.142;4.780;2023-11-19T01:18:41;7.10;;;2.00;;
15929;SDS011;8064;51.142;4.780;2023-11-19T01:21:06;5.37;;;2.00;;
15929;SDS011;8064;51.142;4.780;2023-11-19T01:23:33;10.60;;;2.20;;
15929;SDS011;8064;51.142;4.780;2023-11-19T01:25:59;8.83;;;2.40;;
15929;SDS011;8064;51.142;4.780;2023-11-19T01:28:25;10.20;;;2.50;;
15929;SDS011;8064;51.142;4.780;2023-11-19T01:30:51;10.53;;;2.90;;
15929;SDS011;8064;51.142;4.780;2023-11-19T01:33:17;12.33;;;3.27;;
15929;SDS011;8064;51.142;4.780;2023-11-19T01:35:43;11.77;;;2.67;;
15929;SDS011;8064;51.142;4.780;2023-11-19T01:38:08;11.90;;;3.10;;
15929;SDS011;8064;51.142;4.780;2023-11-19T01:40:34;13.00;;;3.10;;
15929;SDS011;8064;51.142;4.780;2023-11-19T01:43:01;10.80;;;3.10;;
15929;SDS011;8064;51.142;4.780;2023-11-19T01:45:29;13.97;;;2.77;;
15929;SDS011;8064;51.142;4.780;2023-11-19T01:47:56;13.07;;;2.40;;
15929;SDS011;8064;51.142;4.780;2023-11-19T01:50:23;11.63;;;2.57;;
15929;SDS011;8064;51.142;4.780;2023-11-19T01:52:52;13.00;;;2.97;;
15929;SDS011;8064;51.142;4.780;2023-11-19T01:55:19;7.63;;;2.73;;
15929;SDS011;8064;51.142;4.780;2023-11-19T01:57:46;11.37;;;2.53;;
15929;SDS011;8064;51.142;4.780;2023-11-19T02:00:14;13.10;;;3.07;;
15929;SDS011;8064;51.142;4.780;2023-11-19T02:02:41;10.07;;;2.53;;
15929;SDS011;8064;51.142;4.780;2023-11-19T02:05:10;13.50;;;3.37;;
15929;SDS011;8064;51.142;4.780;2023-11-19T02:07:36;14.83;;;3.23;;
15929;SDS011;8064;51.142;4.780;2023-11-19T02:10:02;14.27;;;3.17;;
15929;SDS011;8064;51.142;4.780;2023-11-19T02:12:30;12.13;;;2.83;;
15929;SDS011;8064;51.142;4.780;2023-11-19T02:14:59;13.37;;;3.27;;
15929;SDS011;8064;51.142;4.780;2023-11-19T02:17:29;12.30;;;3.00;;
15929;SDS011;8064;51.142;4.780;2023-11-19T02:19:57;13.97;;;3.30;;
15929;SDS011;8064;51.142;4.780;2023-11-19T02:22:23;12.83;;;3.67;;
15929;SDS011;8064;51.142;4.780;2023-11-19T02:24:51;16.00;;;4.37;;
15929;SDS011;8064;51.142;4.780;2023-11-19T02:27:26;15.27;;;2.87;;
15929;SDS011;8064;51.142;4.780;2023-11-19T02:30:11;14.37;;;3.17;;
15929;SDS011;8064;51.142;4.780;2023-11-19T02:32:41;14.37;;;3.03;;
15929;SDS011;8064;51.142;4.780;2023-11-19T02:35:07;15.37;;;3.23;;
15929;SDS011;8064;51.142;4.780;2023-11-19T02:37:34;14.10;;;3.40;;
15929;SDS011;8064;51.142;4.780;2023-11-19T02:40:00;14.93;;;3.40;;
15929;SDS011;8064;51.142;4.780;2023-11-19T02:42:28;18.00;;;3.80;;
15929;SDS011;8064;51.142;4.780;2023-11-19T02:44:54;17.73;;;3.67;;
15929;SDS011;8064;51.142;4.780;2023-11-19T02:47:19;19.60;;;3.00;;
15929;SDS011;8064;51.142;4.780;2023-11-19T02:49:46;13.27;;;3.50;;
15929;SDS011;8064;51.142;4.780;2023-11-19T02:52:13;22.43;;;4.27;;
15929;SDS011;8064;51.142;4.780;2023-11-19T02:54:39;17.33;;;3.50;;
15929;SDS011;8064;51.142;4.780;2023-11-19T02:57:06;14.30;;;3.57;;
15929;SDS011;8064;51.142;4.780;2023-11-19T02:59:35;13.40;;;3.20;;
15929;SDS011;8064;51.142;4.780;2023-11-19T03:02:05;17.97;;;4.10;;
15929;SDS011;8064;51.142;4.780;2023-11-19T03:04:33;17.53;;;3.63;;
15929;SDS011;8064;51.142;4.780;2023-11-19T03:06:59;18.53;;;3.87;;
15929;SDS011;8064;51.142;4.780;2023-11-19T03:09:25;14.33;;;3.00;;
15929;SDS011;8064;51.142;4.780;2023-11-19T03:11:51;16.13;;;3.73;;
15929;SDS011;8064;51.142;4.780;2023-11-19T03:14:16;14.77;;;3.13;;
15929;SDS011;8064;51.142;4.780;2023-11-19T03:16:49;11.17;;;3.83;;
15929;SDS011;8064;51.142;4.780;2023-11-19T03:19:15;13.67;;;2.97;;
15929;SDS011;8064;51.142;4.780;2023-11-19T03:21:41;13.23;;;2.60;;
15929;SDS011;8064;51.142;4.780;2023-11-19T03:24:07;20.47;;;3.63;;
15929;SDS011;8064;51.142;4.780;2023-11-19T03:26:33;16.80;;;3.73;;
15929;SDS011;8064;51.142;4.780;2023-11-19T03:28:59;23.03;;;3.87;;
15929;SDS011;8064;51.142;4.780;2023-11-19T03:31:26;17.40;;;3.73;;
15929;SDS011;8064;51.142;4.780;2023-11-19T03:33:52;16.23;;;3.90;;
15929;SDS011;8064;51.142;4.780;2023-11-19T03:36:17;20.43;;;3.93;;
15929;SDS011;8064;51.142;4.780;2023-11-19T03:38:43;19.07;;;3.33;;
15929;SDS011;8064;51.142;4.780;2023-11-19T03:41:10;18.27;;;3.97;;
15929;SDS011;8064;51.142;4.780;2023-11-19T03:43:37;17.37;;;3.33;;
15929;SDS011;8064;51.142;4.780;2023-11-19T03:46:03;22.07;;;4.30;;
15929;SDS011;8064;51.142;4.780;2023-11-19T03:48:30;14.23;;;3.73;;
15929;SDS011;8064;51.142;4.780;2023-11-19T03:50:56;17.83;;;4.43;;
15929;SDS011;8064;51.142;4.780;2023-11-19T03:53:22;17.63;;;3.57;;
15929;SDS011;8064;51.142;4.780;2023-11-19T03:55:49;21.23;;;3.83;;
15929;SDS011;8064;51.142;4.780;2023-11-19T03:58:15;20.13;;;4.10;;
15929;SDS011;8064;51.142;4.780;2023-11-19T04:00:40;20.87;;;4.33;;
15929;SDS011;8064;51.142;4.780;2023-11-19T04:03:06;18.80;;;3.87;;
15929;SDS011;8064;51.142;4.780;2023-11-19T04:05:32;18.70;;;4.17;;
15929;SDS011;8064;51.142;4.780;2023-11-19T04:07:58;14.67;;;3.50;;
15929;SDS011;8064;51.142;4.780;2023-11-19T04:10:23;19.57;;;3.87;;
15929;SDS011;8064;51.142;4.780;2023-11-19T04:12:49;18.93;;;3.70;;
15929;SDS011;8064;51.142;4.780;2023-11-19T04:15:15;21.20;;;2.90;;
15929;SDS011;8064;51.142;4.780;2023-11-19T04:17:41;20.37;;;3.93;;
15929;SDS011;8064;51.142;4.780;2023-11-19T04:20:07;14.57;;;3.30;;
15929;SDS011;8064;51.142;4.780;2023-11-19T04:22:37;16.17;;;3.30;;
15929;SDS011;8064;51.142;4.780;2023-11-19T04:25:02;19.93;;;3.97;;
15929;SDS011;8064;51.142;4.780;2023-11-19T04:27:29;16.83;;;3.60;;
15929;SDS011;8064;51.142;4.780;2023-11-19T04:29:55;19.00;;;3.23;;
15929;SDS011;8064;51.142;4.780;2023-11-19T04:32:21;22.93;;;4.57;;
15929;SDS011;8064;51.142;4.780;2023-11-19T04:34:47;18.53;;;4.30;;
15929;SDS011;8064;51.142;4.780;2023-11-19T04:37:13;14.17;;;3.57;;
15929;SDS011;8064;51.142;4.780;2023-11-19T04:39:38;18.87;;;4.40;;
15929;SDS011;8064;51.142;4.780;2023-11-19T04:42:04;21.63;;;4.33;;
15929;SDS011;8064;51.142;4.780;2023-11-19T04:44:31;21.93;;;4.83;;
15929;SDS011;8064;51.142;4.780;2023-11-19T04:46:57;18.70;;;4.07;;
15929;SDS011;8064;51.142;4.780;2023-11-19T04:49:23;18.37;;;4.00;;
15929;SDS011;8064;51.142;4.780;2023-11-19T04:51:49;16.70;;;3.87;;
15929;SDS011;8064;51.142;4.780;2023-11-19T04:54:16;19.17;;;3.93;;
15929;SDS011;8064;51.142;4.780;2023-11-19T04:56:44;18.07;;;4.37;;
15929;SDS011;8064;51.142;4.780;2023-11-19T04:59:11;21.43;;;3.43;;
15929;SDS011;8064;51.142;4.780;2023-11-19T05:01:37;19.50;;;4.10;;
15929;SDS011;8064;51.142;4.780;2023-11-19T05:04:03;16.07;;;3.50;;
15929;SDS011;8064;51.142;4.780;2023-11-19T05:06:29;21.93;;;4.20;;
15929;SDS011;8064;51.142;4.780;2023-11-19T05:08:56;18.27;;;4.27;;
15929;SDS011;8064;51.142;4.780;2023-11-19T05:11:23;18.07;;;4.37;;
15929;SDS011;8064;51.142;4.780;2023-11-19T05:13:49;16.43;;;4.37;;
15929;SDS011;8064;51.142;4.780;2023-11-19T05:16:15;20.93;;;4.63;;
15929;SDS011;8064;51.142;4.780;2023-11-19T05:18:42;18.70;;;4.03;;
15929;SDS011;8064;51.142;4.780;2023-11-19T05:21:08;18.67;;;4.17;;
15929;SDS011;8064;51.142;4.780;2023-11-19T05:23:34;24.30;;;4.40;;
15929;SDS011;8064;51.142;4.780;2023-11-19T05:26:01;19.43;;;4.37;;
15929;SDS011;8064;51.142;4.780;2023-11-19T05:28:27;19.97;;;4.10;;
15929;SDS011;8064;51.142;4.780;2023-11-19T05:30:53;20.00;;;3.90;;
15929;SDS011;8064;51.142;4.780;2023-11-19T05:33:19;18.10;;;3.73;;
15929;SDS011;8064;51.142;4.780;2023-11-19T05:35:44;24.13;;;4.33;;
15929;SDS011;8064;51.142;4.780;2023-11-19T05:38:10;20.70;;;4.30;;
15929;SDS011;8064;51.142;4.780;2023-11-19T05:40:36;19.77;;;4.70;;
15929;SDS011;8064;51.142;4.780;2023-11-19T05:43:03;29.20;;;5.03;;
15929;SDS011;8064;51.142;4.780;2023-11-19T05:45:30;22.33;;;5.37;;
15929;SDS011;8064;51.142;4.780;2023-11-19T05:47:57;21.77;;;4.77;;
15929;SDS011;8064;51.142;4.780;2023-11-19T05:50:22;25.17;;;4.93;;
15929;SDS011;8064;51.142;4.780;2023-11-19T05:52:49;22.63;;;4.27;;
15929;SDS011;8064;51.142;4.780;2023-11-19T05:55:15;20.07;;;4.27;;
15929;SDS011;8064;51.142;4.780;2023-11-19T05:57:41;20.57;;;4.63;;
15929;SDS011;8064;51.142;4.780;2023-11-19T06:00:07;23.03;;;5.33;;
15929;SDS011;8064;51.142;4.780;2023-11-19T06:02:35;23.03;;;5.37;;
15929;SDS011;8064;51.142;4.780;2023-11-19T06:05:03;22.40;;;4.13;;
15929;SDS011;8064;51.142;4.780;2023-11-19T06:07:31;21.17;;;4.47;;
15929;SDS011;8064;51.142;4.780;2023-11-19T06:09:57;16.57;;;3.73;;
15929;SDS011;8064;51.142;4.780;2023-11-19T06:12:23;22.83;;;4.83;;
15929;SDS011;8064;51.142;4.780;2023-11-19T06:14:49;21.87;;;4.33;;
15929;SDS011;8064;51.142;4.780;2023-11-19T06:17:14;21.00;;;4.73;;
15929;SDS011;8064;51.142;4.780;2023-11-19T06:19:40;20.13;;;4.53;;
15929;SDS011;8064;51.142;4.780;2023-11-19T06:22:06;23.40;;;4.50;;
15929;SDS011;8064;51.142;4.780;2023-11-19T06:24:31;24.40;;;5.27;;
15929;SDS011;8064;51.142;4.780;2023-11-19T06:26:57;25.27;;;5.07;;
15929;SDS011;8064;51.142;4.780;2023-11-19T06:29:23;24.47;;;4.97;;
15929;SDS011;8064;51.142;4.780;2023-11-19T06:31:49;22.83;;;4.70;;
15929;SDS011;8064;51.142;4.780;2023-11-19T06:34:16;18.63;;;3.90;;
15929;SDS011;8064;51.142;4.780;2023-11-19T06:36:42;23.43;;;4.70;;
15929;SDS011;8064;51.142;4.780;2023-11-19T06:39:09;22.57;;;4.97;;
15929;SDS011;8064;51.142;4.780;2023-11-19T06:41:35;25.33;;;5.10;;
15929;SDS011;8064;51.142;4.780;2023-11-19T06:44:03;22.93;;;4.50;;
15929;SDS011;8064;51.142;4.780;2023-11-19T06:46:29;19.47;;;4.53;;
15929;SDS011;8064;51.142;4.780;2023-11-19T06:48:56;25.10;;;4.57;;
15929;SDS011;8064;51.142;4.780;2023-11-19T06:51:22;28.93;;;5.90;;
15929;SDS011;8064;51.142;4.780;2023-11-19T06:53:49;26.00;;;4.87;;
15929;SDS011;8064;51.142;4.780;2023-11-19T06:56:21;23.63;;;5.57;;
15929;SDS011;8064;51.142;4.780;2023-11-19T06:58:48;23.77;;;4.43;;
15929;SDS011;8064;51.142;4.780;2023-11-19T07:01:15;22.33;;;5.17;;
15929;SDS011;8064;51.142;4.780;2023-11-19T07:03:41;24.70;;;4.90;;
15929;SDS011;8064;51.142;4.780;2023-11-19T07:06:07;24.23;;;5.27;;
15929;SDS011;8064;51.142;4.780;2023-11-19T07:08:33;18.90;;;4.30;;
15929;SDS011;8064;51.142;4.780;2023-11-19T07:10:59;17.83;;;4.60;;
15929;SDS011;8064;51.142;4.780;2023-11-19T07:13:25;25.23;;;5.03;;
15929;SDS011;8064;51.142;4.780;2023-11-19T07:15:53;19.80;;;4.30;;
15929;SDS011;8064;51.142;4.780;2023-11-19T07:18:21;19.87;;;4.30;;
15929;SDS011;8064;51.142;4.780;2023-11-19T07:20:47;22.27;;;5.27;;
15929;SDS011;8064;51.142;4.780;2023-11-19T07:23:13;21.57;;;4.80;;
15929;SDS011;8064;51.142;4.780;2023-11-19T07:25:42;17.87;;;3.97;;
15929;SDS011;8064;51.142;4.780;2023-11-19T07:28:10;22.97;;;5.87;;
15929;SDS011;8064;51.142;4.780;2023-11-19T07:30:35;27.13;;;5.07;;
15929;SDS011;8064;51.142;4.780;2023-11-19T07:33:02;22.70;;;4.60;;
15929;SDS011;8064;51.142;4.780;2023-11-19T07:35:29;19.93;;;4.87;;
15929;SDS011;8064;51.142;4.780;2023-11-19T07:37:56;22.63;;;4.70;;
15929;SDS011;8064;51.142;4.780;2023-11-19T07:40:22;21.87;;;4.87;;
15929;SDS011;8064;51.142;4.780;2023-11-19T07:42:50;18.30;;;4.57;;
15929;SDS011;8064;51.142;4.780;2023-11-19T07:45:16;25.07;;;5.27;;
15929;SDS011;8064;51.142;4.780;2023-11-19T07:47:42;18.63;;;4.60;;
15929;SDS011;8064;51.142;4.780;2023-11-19T07:50:10;27.67;;;5.43;;
15929;SDS011;8064;51.142;4.780;2023-11-19T07:52:36;19.50;;;4.03;;
15929;SDS011;8064;51.142;4.780;2023-11-19T07:55:02;22.53;;;5.10;;
15929;SDS011;8064;51.142;4.780;2023-11-19T07:57:30;19.43;;;3.80;;
15929;SDS011;8064;51.142;4.780;2023-11-19T07:59:56;26.60;;;5.10;;
15929;SDS011;8064;51.142;4.780;2023-11-19T08:02:22;26.73;;;5.07;;
15929;SDS011;8064;51.142;4.780;2023-11-19T08:04:49;20.10;;;4.40;;
15929;SDS011;8064;51.142;4.780;2023-11-19T08:07:17;21.03;;;4.40;;
15929;SDS011;8064;51.142;4.780;2023-11-19T08:09:44;28.60;;;4.93;;
15929;SDS011;8064;51.142;4.780;2023-11-19T08:12:10;26.93;;;4.90;;
15929;SDS011;8064;51.142;4.780;2023-11-19T08:14:36;19.73;;;4.93;;
15929;SDS011;8064;51.142;4.780;2023-11-19T08:17:03;22.23;;;4.90;;
15929;SDS011;8064;51.142;4.780;2023-11-19T08:19:28;19.07;;;4.97;;
15929;SDS011;8064;51.142;4.780;2023-11-19T08:21:55;25.30;;;4.87;;
15929;SDS011;8064;51.142;4.780;2023-11-19T08:24:21;26.40;;;5.17;;
15929;SDS011;8064;51.142;4.780;2023-11-19T08:26:46;22.60;;;4.47;;
15929;SDS011;8064;51.142;4.780;2023-11-19T08:29:14;20.03;;;5.20;;
15929;SDS011;8064;51.142;4.780;2023-11-19T08:31:42;21.07;;;4.70;;
15929;SDS011;8064;51.142;4.780;2023-11-19T08:34:08;19.10;;;4.80;;
15929;SDS011;8064;51.142;4.780;2023-11-19T08:36:34;23.20;;;5.40;;
15929;SDS011;8064;51.142;4.780;2023-11-19T08:39:00;22.07;;;5.30;;
15929;SDS011;8064;51.142;4.780;2023-11-19T08:41:26;21.30;;;4.97;;
15929;SDS011;8064;51.142;4.780;2023-11-19T08:43:52;25.93;;;5.33;;
15929;SDS011;8064;51.142;4.780;2023-11-19T08:46:18;19.40;;;4.97;;
15929;SDS011;8064;51.142;4.780;2023-11-19T08:48:43;22.20;;;4.43;;
15929;SDS011;8064;51.142;4.780;2023-11-19T08:51:09;20.23;;;5.20;;
15929;SDS011;8064;51.142;4.780;2023-11-19T08:53:35;20.60;;;4.53;;
15929;SDS011;8064;51.142;4.780;2023-11-19T08:56:01;18.20;;;4.60;;
15929;SDS011;8064;51.142;4.780;2023-11-19T08:58:28;20.23;;;5.53;;
15929;SDS011;8064;51.142;4.780;2023-11-19T09:00:54;16.43;;;4.73;;
15929;SDS011;8064;51.142;4.780;2023-11-19T09:03:19;19.17;;;4.97;;
15929;SDS011;8064;51.142;4.780;2023-11-19T09:05:46;16.57;;;3.73;;
15929;SDS011;8064;51.142;4.780;2023-11-19T09:08:11;19.03;;;4.30;;
15929;SDS011;8064;51.142;4.780;2023-11-19T09:10:37;23.53;;;4.90;;
15929;SDS011;8064;51.142;4.780;2023-11-19T09:13:03;26.60;;;5.00;;
15929;SDS011;8064;51.142;4.780;2023-11-19T09:15:29;21.80;;;5.03;;
15929;SDS011;8064;51.142;4.780;2023-11-19T09:17:55;18.33;;;4.53;;
15929;SDS011;8064;51.142;4.780;2023-11-19T09:20:21;19.70;;;4.37;;
15929;SDS011;8064;51.142;4.780;2023-11-19T09:22:47;17.23;;;4.87;;
15929;SDS011;8064;51.142;4.780;2023-11-19T09:25:13;17.87;;;4.50;;
15929;SDS011;8064;51.142;4.780;2023-11-19T09:27:45;14.77;;;4.57;;
15929;SDS011;8064;51.142;4.780;2023-11-19T09:30:11;14.00;;;3.85;;
15929;SDS011;8064;51.142;4.780;2023-11-19T09:32:39;20.90;;;4.50;;
15929;SDS011;8064;51.142;4.780;2023-11-19T09:35:08;20.92;;;4.93;;
15929;SDS011;8064;51.142;4.780;2023-11-19T09:37:35;20.88;;;5.25;;
15929;SDS011;8064;51.142;4.780;2023-11-19T09:40:01;16.33;;;4.30;;
15929;SDS011;8064;51.142;4.780;2023-11-19T09:42:27;13.93;;;4.18;;
15929;SDS011;8064;51.142;4.780;2023-11-19T09:44:53;14.20;;;4.68;;
15929;SDS011;8064;51.142;4.780;2023-11-19T09:47:21;17.75;;;4.43;;
15929;SDS011;8064;51.142;4.780;2023-11-19T09:49:48;15.32;;;4.18;;
15929;SDS011;8064;51.142;4.780;2023-11-19T09:52:15;15.13;;;4.05;;
15929;SDS011;8064;51.142;4.780;2023-11-19T09:54:40;16.67;;;4.80;;
15929;SDS011;8064;51.142;4.780;2023-11-19T09:57:07;16.83;;;4.88;;
15929;SDS011;8064;51.142;4.780;2023-11-19T09:59:36;17.23;;;3.97;;
15929;SDS011;8064;51.142;4.780;2023-11-19T10:02:03;14.68;;;4.00;;
15929;SDS011;8064;51.142;4.780;2023-11-19T10:04:29;18.70;;;4.38;;
15929;SDS011;8064;51.142;4.780;2023-11-19T10:06:58;17.98;;;4.60;;
15929;SDS011;8064;51.142;4.780;2023-11-19T10:09:24;17.17;;;4.35;;
15929;SDS011;8064;51.142;4.780;2023-11-19T10:11:50;18.40;;;4.80;;
15929;SDS011;8064;51.142;4.780;2023-11-19T10:14:15;17.15;;;5.00;;
15929;SDS011;8064;51.142;4.780;2023-11-19T10:16:44;15.38;;;4.28;;
15929;SDS011;8064;51.142;4.780;2023-11-19T10:19:12;17.60;;;4.82;;
15929;SDS011;8064;51.142;4.780;2023-11-19T10:21:45;16.73;;;4.75;;
15929;SDS011;8064;51.142;4.780;2023-11-19T10:24:11;18.13;;;4.88;;
15929;SDS011;8064;51.142;4.780;2023-11-19T10:26:37;13.75;;;4.50;;
15929;SDS011;8064;51.142;4.780;2023-11-19T10:29:03;14.73;;;4.75;;
15929;SDS011;8064;51.142;4.780;2023-11-19T10:31:29;17.92;;;4.97;;
15929;SDS011;8064;51.142;4.780;2023-11-19T10:33:55;12.77;;;4.10;;
15929;SDS011;8064;51.142;4.780;2023-11-19T10:36:22;14.48;;;3.97;;
15929;SDS011;8064;51.142;4.780;2023-11-19T10:38:54;17.75;;;4.20;;
15929;SDS011;8064;51.142;4.780;2023-11-19T10:41:27;15.18;;;4.18;;
15929;SDS011;8064;51.142;4.780;2023-11-19T10:43:55;17.20;;;4.57;;
15929;SDS011;8064;51.142;4.780;2023-11-19T10:46:21;15.85;;;4.38;;
15929;SDS011;8064;51.142;4.780;2023-11-19T10:48:48;13.68;;;3.88;;
15929;SDS011;8064;51.142;4.780;2023-11-19T10:51:18;12.57;;;3.40;;
15929;SDS011;8064;51.142;4.780;2023-11-19T10:53:49;13.88;;;3.92;;
15929;SDS011;8064;51.142;4.780;2023-11-19T10:56:16;16.05;;;3.13;;
15929;SDS011;8064;51.142;4.780;2023-11-19T10:58:45;21.13;;;4.55;;
15929;SDS011;8064;51.142;4.780;2023-11-19T11:01:16;22.80;;;4.10;;
15929;SDS011;8064;51.142;4.780;2023-11-19T11:03:46;19.33;;;4.22;;
15929;SDS011;8064;51.142;4.780;2023-11-19T11:06:12;18.47;;;4.33;;
15929;SDS011;8064;51.142;4.780;2023-11-19T11:08:39;18.67;;;4.17;;
15929;SDS011;8064;51.142;4.780;2023-11-19T11:11:05;23.43;;;4.10;;
15929;SDS011;8064;51.142;4.780;2023-11-19T11:16:19;15.35;;;3.70;;
15929;SDS011;8064;51.142;4.780;2023-11-19T11:18:49;17.55;;;3.75;;
15929;SDS011;8064;51.142;4.780;2023-11-19T11:21:17;19.10;;;4.07;;
15929;SDS011;8064;51.142;4.780;2023-11-19T11:26:33;17.13;;;4.10;;
15929;SDS011;8064;51.142;4.780;2023-11-19T11:37:25;17.70;;;4.97;;
15929;SDS011;8064;51.142;4.780;2023-11-19T11:40:01;14.13;;;4.22;;
15929;SDS011;8064;51.142;4.780;2023-11-19T11:42:35;12.35;;;3.50;;
15929;SDS011;8064;51.142;4.780;2023-11-19T11:45:05;13.50;;;3.55;;
15929;SDS011;8064;51.142;4.780;2023-11-19T11:50:17;15.00;;;4.13;;
15929;SDS011;8064;51.142;4.780;2023-11-19T11:55:28;16.58;;;4.18;;
15929;SDS011;8064;51.142;4.780;2023-11-19T11:57:59;18.05;;;3.90;;
15929;SDS011;8064;51.142;4.780;2023-11-19T12:02:56;19.60;;;4.05;;
15929;SDS011;8064;51.142;4.780;2023-11-19T12:05:23;15.15;;;3.60;;
15929;SDS011;8064;51.142;4.780;2023-11-19T12:07:56;13.05;;;3.33;;
15929;SDS011;8064;51.142;4.780;2023-11-19T12:10:24;15.68;;;3.53;;
15929;SDS011;8064;51.142;4.780;2023-11-19T12:12:56;16.83;;;3.85;;
15929;SDS011;8064;51.142;4.780;2023-11-19T12:15:28;13.87;;;3.47;;
15929;SDS011;8064;51.142;4.780;2023-11-19T12:17:54;15.73;;;3.83;;
15929;SDS011;8064;51.142;4.780;2023-11-19T12:20:21;17.30;;;4.40;;
15929;SDS011;8064;51.142;4.780;2023-11-19T12:22:48;19.17;;;4.37;;
15929;SDS011;8064;51.142;4.780;2023-11-19T12:25:15;18.00;;;4.07;;
15929;SDS011;8064;51.142;4.780;2023-11-19T12:27:43;17.70;;;3.57;;
15929;SDS011;8064;51.142;4.780;2023-11-19T12:30:10;15.50;;;3.70;;
15929;SDS011;8064;51.142;4.780;2023-11-19T12:32:38;15.97;;;4.00;;
15929;SDS011;8064;51.142;4.780;2023-11-19T12:35:06;17.80;;;3.93;;
15929;SDS011;8064;51.142;4.780;2023-11-19T12:37:38;16.67;;;3.77;;
15929;SDS011;8064;51.142;4.780;2023-11-19T12:40:10;12.23;;;3.20;;
15929;SDS011;8064;51.142;4.780;2023-11-19T12:42:36;16.33;;;3.53;;
15929;SDS011;8064;51.142;4.780;2023-11-19T12:45:03;16.87;;;4.00;;
15929;SDS011;8064;51.142;4.780;2023-11-19T12:47:30;22.33;;;4.20;;
15929;SDS011;8064;51.142;4.780;2023-11-19T12:49:56;17.20;;;3.70;;
15929;SDS011;8064;51.142;4.780;2023-11-19T12:52:22;17.17;;;4.47;;
15929;SDS011;8064;51.142;4.780;2023-11-19T12:54:48;19.70;;;4.20;;
15929;SDS011;8064;51.142;4.780;2023-11-19T12:57:14;18.27;;;4.37;;
15929;SDS011;8064;51.142;4.780;2023-11-19T12:59:40;18.37;;;3.87;;
15929;SDS011;8064;51.142;4.780;2023-11-19T13:02:06;20.40;;;4.37;;
15929;SDS011;8064;51.142;4.780;2023-11-19T13:04:33;23.67;;;4.37;;
15929;SDS011;8064;51.142;4.780;2023-11-19T13:07:00;16.60;;;3.70;;
15929;SDS011;8064;51.142;4.780;2023-11-19T13:09:26;17.93;;;3.70;;
15929;SDS011;8064;51.142;4.780;2023-11-19T13:11:54;14.63;;;3.27;;
15929;SDS011;8064;51.142;4.780;2023-11-19T13:14:20;12.17;;;3.13;;
15929;SDS011;8064;51.142;4.780;2023-11-19T13:16:46;12.63;;;3.00;;
15929;SDS011;8064;51.142;4.780;2023-11-19T13:19:12;12.63;;;2.80;;
15929;SDS011;8064;51.142;4.780;2023-11-19T13:21:39;12.63;;;3.10;;
15929;SDS011;8064;51.142;4.780;2023-11-19T13:24:06;14.73;;;3.27;;
15929;SDS011;8064;51.142;4.780;2023-11-19T13:26:32;14.90;;;3.67;;
15929;SDS011;8064;51.142;4.780;2023-11-19T13:28:57;13.27;;;3.53;;
15929;SDS011;8064;51.142;4.780;2023-11-19T13:31:23;11.93;;;2.93;;
15929;SDS011;8064;51.142;4.780;2023-11-19T13:33:49;17.83;;;4.53;;
15929;SDS011;8064;51.142;4.780;2023-11-19T13:36:15;21.07;;;4.93;;
15929;SDS011;8064;51.142;4.780;2023-11-19T13:38:40;11.13;;;3.00;;
15929;SDS011;8064;51.142;4.780;2023-11-19T13:41:07;15.03;;;3.47;;
15929;SDS011;8064;51.142;4.780;2023-11-19T13:43:35;15.07;;;4.13;;
15929;SDS011;8064;51.142;4.780;2023-11-19T13:46:01;17.53;;;4.37;;
15929;SDS011;8064;51.142;4.780;2023-11-19T13:48:27;18.47;;;4.33;;
15929;SDS011;8064;51.142;4.780;2023-11-19T13:50:54;16.83;;;3.90;;
15929;SDS011;8064;51.142;4.780;2023-11-19T13:53:20;15.70;;;3.33;;
15929;SDS011;8064;51.142;4.780;2023-11-19T13:55:46;11.97;;;3.37;;
15929;SDS011;8064;51.142;4.780;2023-11-19T13:58:12;17.23;;;3.90;;
15929;SDS011;8064;51.142;4.780;2023-11-19T14:00:38;13.30;;;3.47;;
15929;SDS011;8064;51.142;4.780;2023-11-19T14:03:07;13.97;;;3.63;;
15929;SDS011;8064;51.142;4.780;2023-11-19T14:05:32;15.27;;;4.10;;
15929;SDS011;8064;51.142;4.780;2023-11-19T14:07:58;13.77;;;3.83;;
15929;SDS011;8064;51.142;4.780;2023-11-19T14:10:24;17.73;;;3.73;;
15929;SDS011;8064;51.142;4.780;2023-11-19T14:12:50;16.57;;;3.70;;
15929;SDS011;8064;51.142;4.780;2023-11-19T14:15:15;17.03;;;3.30;;
15929;SDS011;8064;51.142;4.780;2023-11-19T14:17:42;18.10;;;3.93;;
15929;SDS011;8064;51.142;4.780;2023-11-19T14:20:08;15.27;;;3.27;;
15929;SDS011;8064;51.142;4.780;2023-11-19T14:22:39;14.53;;;3.63;;
15929;SDS011;8064;51.142;4.780;2023-11-19T14:25:05;17.57;;;3.93;;
15929;SDS011;8064;51.142;4.780;2023-11-19T14:27:35;13.87;;;3.50;;
15929;SDS011;8064;51.142;4.780;2023-11-19T14:30:04;13.00;;;3.47;;
15929;SDS011;8064;51.142;4.780;2023-11-19T14:32:31;20.73;;;4.03;;
15929;SDS011;8064;51.142;4.780;2023-11-19T14:34:56;17.90;;;3.70;;
15929;SDS011;8064;51.142;4.780;2023-11-19T14:37:22;15.63;;;3.40;;
15929;SDS011;8064;51.142;4.780;2023-11-19T14:39:48;13.77;;;3.33;;
15929;SDS011;8064;51.142;4.780;2023-11-19T14:42:15;16.40;;;3.73;;
15929;SDS011;8064;51.142;4.780;2023-11-19T14:44:42;17.40;;;3.70;;
15929;SDS011;8064;51.142;4.780;2023-11-19T14:47:07;16.87;;;3.70;;
15929;SDS011;8064;51.142;4.780;2023-11-19T14:49:35;18.93;;;4.53;;
15929;SDS011;8064;51.142;4.780;2023-11-19T14:52:02;16.53;;;3.63;;
15929;SDS011;8064;51.142;4.780;2023-11-19T14:54:28;16.60;;;3.97;;
15929;SDS011;8064;51.142;4.780;2023-11-19T14:56:54;14.67;;;3.07;;
15929;SDS011;8064;51.142;4.780;2023-11-19T14:59:20;15.60;;;3.70;;
15929;SDS011;8064;51.142;4.780;2023-11-19T15:01:45;14.13;;;3.70;;
15929;SDS011;8064;51.142;4.780;2023-11-19T15:04:11;12.83;;;3.53;;
15929;SDS011;8064;51.142;4.780;2023-11-19T15:06:37;14.63;;;3.73;;